Aérodrome :
LOGIN :

S'inscrire | Disclaimer

   EN    FR    IT 

 










Légende :    VFR   VFR Marginal   IFR   IFR Intensif   IFR Très Intensif
Visi : 
Plafond : 
>= 8 km
>= 3000ft
5 à 8 km
1000 à 3000 ft
1500m à 5 km
500 à 1000 ft
800 à 1500m
200 à 500 ft
< 800m
< 200 ft
Symboles :   Orages  Brouillard  Fortes neiges  Fortes précipitations  Vent > 20 kt
SIGMETs :   Divers  Orages  Givrage  Turbulence  Onde Orograph.  Cendres Volcan.






- Altitude de l'aérodrome : 433 ft
- Code IATA : CCF


LFMK - Carcassonne

DERNIER METAR :
  • 212030Z AUTO 08011KT CAVOK 11/09 Q1016

METARs EXPIRÉS :
  • 212000Z AUTO 08013KT CAVOK 11/09 Q1016
  • 211930Z AUTO 08014KT CAVOK 12/09 Q1015
  • 211900Z AUTO 08012KT 9999 FEW027 12/08 Q1015
  • 211830Z AUTO 09013KT CAVOK 13/08 Q1015

TAF TAF LFMK
Valide du 21 à 15h jusqu'au 22 à 15h UTC


211400Z 2115/2215 10013KT 9999 BKN030
BECMG 2119/2121 OVC014
TEMPO 2121/2208 4000 BR OVC003
BECMG 2208/2210 10015G25KT BKN020
BECMG 2213/2215 CAVOK



MET'MAP, la Météo Aéronautique d'un coup d'oeil ! - Copyright ORBIFLY Décembre 2007 - Disclaimer

ORBIFLY MET'MAP TEAM :

Programmation & Développement : Alexandra Zaïnal
Sur une idée originale de : Baudouin d'Aumeries
Assistance à la programmation : Marc-Olivier Méhu
Soutien technique & logistique : Manuel Goepfert

Contact : metmap@orbifly.com




SOURCES & CREDITS :

   NOAA